Observation data for Levelland on 01/17/2019      Previous  Date  Next       Current Mesonet Observations  Soil Data  Daily Summary Page  Observations in Plain Language
KLD1 170600Z 29013KT 10/M01 A3012 RMK A01 T01021006  RH  047%=      5-min Rain = 0
KLD1 170605Z 28013KT 10/M01 A3012 RMK A01 T01021007  RH  047%=      5-min Rain = 0
KLD1 170610Z 28014KT 10/M01 A3012 RMK A01 T01031008  RH  046%=      5-min Rain = 0
KLD1 170615Z 28014G19KT 11/M01 A3012 RMK A01 T01051008  RH  046%=      5-min Rain = 0
KLD1 170620Z 28014KT 10/M01 A3012 RMK A01 T01041009  RH  046%=      5-min Rain = 0
KLD1 170625Z 28013G19KT 10/M01 A3012 RMK A01 T01021010  RH  046%=      5-min Rain = 0
KLD1 170630Z 28012G18KT 10/M01 A3012 RMK A01 T01011011  RH  046%=      5-min Rain = 0
KLD1 170635Z 28013KT 10/M01 A3012 RMK A01 T01021011  RH  046%=      5-min Rain = 0
KLD1 170640Z 29012KT 10/M01 A3012 RMK A01 T01031012  RH  045%=      5-min Rain = 0
KLD1 170645Z 29012KT 10/M01 A3012 RMK A01 T01011013  RH  045%=      5-min Rain = 0
KLD1 170650Z 29011KT 10/M01 A3012 RMK A01 T00991013  RH  046%=      5-min Rain = 0
KLD1 170655Z 28011KT 10/M01 A3012 RMK A01 T00971013  RH  047%=      5-min Rain = 0
KLD1 170700Z 28012KT 10/M01 A3012 RMK A01 T00971013  RH  047%=      5-min Rain = 0
KLD1 170705Z 27012G17KT 10/M01 A3012 RMK A01 T00971013  RH  047%=      5-min Rain = 0
KLD1 170710Z 26013KT 09/M01 A3012 RMK A01 T00921012  RH  049%=      5-min Rain = 0
KLD1 170715Z 26012KT 09/M01 A3012 RMK A01 T00871012  RH  050%=      5-min Rain = 0
KLD1 170720Z 26012KT 09/M01 A3012 RMK A01 T00851012  RH  051%=      5-min Rain = 0
KLD1 170725Z 26012KT 08/M01 A3012 RMK A01 T00821012  RH  052%=      5-min Rain = 0
KLD1 170730Z 26012KT 08/M01 A3012 RMK A01 T00801011  RH  053%=      5-min Rain = 0
KLD1 170735Z 26011KT 08/M01 A3012 RMK A01 T00811012  RH  053%=      5-min Rain = 0
KLD1 170740Z 25012KT 08/M01 A3012 RMK A01 T00771012  RH  054%=      5-min Rain = 0
KLD1 170745Z 25013KT 07/M01 A3012 RMK A01 T00741011  RH  055%=      5-min Rain = 0
KLD1 170750Z 26014G19KT 08/M01 A3012 RMK A01 T00771010  RH  054%=      5-min Rain = 0
KLD1 170755Z 26015G20KT 08/M01 A3012 RMK A01 T00821010  RH  053%=      5-min Rain = 0
KLD1 170800Z 26014KT 08/M01 A3012 RMK A01 T00811011  RH  053%=      5-min Rain = 0
KLD1 170805Z 27014KT 08/M01 A3012 RMK A01 T00801011  RH  053%=      5-min Rain = 0
KLD1 170810Z 26015KT 08/M01 A3012 RMK A01 T00821011  RH  052%=      5-min Rain = 0
KLD1 170815Z 26015KT 08/M01 A3012 RMK A01 T00801011  RH  053%=      5-min Rain = 0
KLD1 170820Z 26015G20KT 08/M01 A3012 RMK A01 T00811011  RH  052%=      5-min Rain = 0
KLD1 170825Z 27014KT 08/M01 A3012 RMK A01 T00811012  RH  052%=      5-min Rain = 0
KLD1 170830Z 27015KT 08/M01 A3012 RMK A01 T00821012  RH  052%=      5-min Rain = 0
KLD1 170835Z 27015G22KT 08/M01 A3012 RMK A01 T00841011  RH  051%=      5-min Rain = 0
KLD1 170840Z 27015KT 09/M01 A3013 RMK A01 T00891012  RH  050%=      5-min Rain = 0
KLD1 170845Z 27015KT 09/M01 A3013 RMK A01 T00881012  RH  050%=      5-min Rain = 0
KLD1 170850Z 27014KT 09/M01 A3014 RMK A01 T00901013  RH  049%=      5-min Rain = 0
KLD1 170855Z 27014KT 09/M01 A3014 RMK A01 T00921014  RH  048%=      5-min Rain = 0
KLD1 170900Z 27015G20KT 09/M01 A3014 RMK A01 T00931014  RH  048%=      5-min Rain = 0
KLD1 170905Z 27015KT 09/M01 A3014 RMK A01 T00921014  RH  048%=      5-min Rain = 0
KLD1 170910Z 28015KT 09/M01 A3015 RMK A01 T00921014  RH  048%=      5-min Rain = 0
KLD1 170915Z 28016KT 09/M01 A3014 RMK A01 T00911014  RH  048%=      5-min Rain = 0
KLD1 170920Z 28019G25KT 09/M01 A3014 RMK A01 T00931014  RH  047%=      5-min Rain = 0
KLD1 170925Z 28019G25KT 10/M02 A3014 RMK A01 T00961015  RH  046%=      5-min Rain = 0
KLD1 170930Z 28019G25KT 10/M02 A3013 RMK A01 T00971015  RH  046%=      5-min Rain = 0
KLD1 170935Z 28021G26KT 10/M02 A3013 RMK A01 T01001016  RH  045%=      5-min Rain = 0
KLD1 170940Z 29020G27KT 10/M02 A3013 RMK A01 T01031016  RH  044%=      5-min Rain = 0
KLD1 170945Z 29020G26KT 10/M02 A3013 RMK A01 T01041016  RH  043%=      5-min Rain = 0
KLD1 170950Z 29019G24KT 11/M02 A3013 RMK A01 T01051017  RH  043%=      5-min Rain = 0
KLD1 170955Z 29019G27KT 10/M02 A3013 RMK A01 T01041016  RH  043%=      5-min Rain = 0
KLD1 171000Z 29019G24KT 10/M02 A3013 RMK A01 T01031017  RH  044%=      5-min Rain = 0
KLD1 171005Z 29018G26KT 10/M02 A3013 RMK A01 T01011017  RH  044%=      5-min Rain = 0
KLD1 171010Z 29018G23KT 10/M02 A3013 RMK A01 T01001016  RH  045%=      5-min Rain = 0
KLD1 171015Z 29018G24KT 10/M02 A3013 RMK A01 T01001016  RH  045%=      5-min Rain = 0
KLD1 171020Z 29018G25KT 10/M02 A3013 RMK A01 T01001016  RH  045%=      5-min Rain = 0
KLD1 171025Z 29019G25KT 10/M02 A3013 RMK A01 T01011016  RH  044%=      5-min Rain = 0
KLD1 171030Z 28019KT 10/M02 A3013 RMK A01 T01031016  RH  044%=      5-min Rain = 0
KLD1 171035Z 29016G22KT 10/M02 A3013 RMK A01 T01001017  RH  044%=      5-min Rain = 0
KLD1 171040Z 30017G22KT 10/M02 A3013 RMK A01 T00981016  RH  045%=      5-min Rain = 0
KLD1 171045Z 29019KT 10/M02 A3012 RMK A01 T00981016  RH  046%=      5-min Rain = 0
KLD1 171050Z 29018G23KT 10/M02 A3012 RMK A01 T00971015  RH  046%=      5-min Rain = 0
KLD1 171055Z 29017G22KT 10/M02 A3012 RMK A01 T00971015  RH  046%=      5-min Rain = 0
KLD1 171100Z 29016G22KT 10/M02 A3012 RMK A01 T00951015  RH  047%=      5-min Rain = 0
KLD1 171105Z 28015G22KT 09/M01 A3013 RMK A01 T00941014  RH  047%=      5-min Rain = 0
KLD1 171110Z 28015KT 09/M01 A3013 RMK A01 T00931014  RH  047%=      5-min Rain = 0
KLD1 171115Z 28012KT 09/M02 A3013 RMK A01 T00911015  RH  048%=      5-min Rain = 0
KLD1 171120Z 28012KT 09/M01 A3014 RMK A01 T00891014  RH  049%=      5-min Rain = 0
KLD1 171125Z 28011G16KT 09/M01 A3014 RMK A01 T00871014  RH  049%=      5-min Rain = 0
KLD1 171130Z 28011KT 09/M01 A3014 RMK A01 T00851014  RH  050%=      5-min Rain = 0
KLD1 171135Z 28011KT 08/M01 A3014 RMK A01 T00831014  RH  051%=      5-min Rain = 0
KLD1 171140Z 28010KT 08/M01 A3014 RMK A01 T00811014  RH  052%=      5-min Rain = 0
KLD1 171145Z 28010KT 08/M01 A3014 RMK A01 T00781014  RH  053%=      5-min Rain = 0
KLD1 171150Z 29010KT 08/M01 A3014 RMK A01 T00761014  RH  053%=      5-min Rain = 0
KLD1 171155Z 29011KT 07/M01 A3014 RMK A01 T00741014  RH  054%=      5-min Rain = 0
KLD1 171200Z 28011KT 07/M01 A3014 RMK A01 T00741014  RH  054%=      5-min Rain = 0
KLD1 171205Z 28009KT 07/M01 A3014 RMK A01 T00721014  RH  055%=      5-min Rain = 0
KLD1 171210Z 28009KT 07/M01 A3015 RMK A01 T00701014  RH  055%=      5-min Rain = 0
KLD1 171215Z 29008KT 07/M02 A3015 RMK A01 T00671015  RH  056%=      5-min Rain = 0
KLD1 171220Z 28009KT 06/M02 A3015 RMK A01 T00641015  RH  058%=      5-min Rain = 0
KLD1 171225Z 28008KT 06/M02 A3016 RMK A01 T00621016  RH  058%=      5-min Rain = 0
KLD1 171230Z 28008KT 06/M02 A3016 RMK A01 T00601016  RH  059%=      5-min Rain = 0
KLD1 171235Z 28008KT 06/M02 A3016 RMK A01 T00561017  RH  060%=      5-min Rain = 0
KLD1 171240Z 28008KT 05/M02 A3016 RMK A01 T00531017  RH  061%=      5-min Rain = 0
KLD1 171245Z 29009KT 05/M02 A3016 RMK A01 T00501017  RH  062%=      5-min Rain = 0
KLD1 171250Z 28009KT 05/M02 A3016 RMK A01 T00471018  RH  063%=      5-min Rain = 0
KLD1 171255Z 28008KT 05/M02 A3016 RMK A01 T00471017  RH  064%=      5-min Rain = 0
KLD1 171300Z 29008KT 05/M02 A3017 RMK A01 T00451018  RH  064%=      5-min Rain = 0
KLD1 171305Z 29008KT 04/M02 A3017 RMK A01 T00381021  RH  066%=      5-min Rain = 0
KLD1 171310Z 30008KT 03/M02 A3017 RMK A01 T00331021  RH  068%=      5-min Rain = 0
KLD1 171315Z 30008KT 03/M02 A3017 RMK A01 T00341020  RH  069%=      5-min Rain = 0
KLD1 171320Z 30008KT 03/M02 A3017 RMK A01 T00341019  RH  069%=      5-min Rain = 0
KLD1 171325Z 30008KT 04/M02 A3017 RMK A01 T00361018  RH  068%=      5-min Rain = 0
KLD1 171330Z 29008KT 04/M02 A3018 RMK A01 T00371017  RH  068%=      5-min Rain = 0
KLD1 171335Z 29008KT 04/M02 A3018 RMK A01 T00381017  RH  068%=      5-min Rain = 0
KLD1 171340Z 28008KT 04/M02 A3018 RMK A01 T00391017  RH  067%=      5-min Rain = 0
KLD1 171345Z 28007KT 04/M02 A3019 RMK A01 T00371019  RH  068%=      5-min Rain = 0
KLD1 171350Z 28007KT 04/M02 A3018 RMK A01 T00351019  RH  068%=      5-min Rain = 0
KLD1 171355Z 28007KT 04/M02 A3018 RMK A01 T00371018  RH  068%=      5-min Rain = 0
KLD1 171400Z 28007KT 04/M02 A3019 RMK A01 T00371018  RH  068%=      5-min Rain = 0
KLD1 171405Z 28007KT 04/M02 A3019 RMK A01 T00391017  RH  067%=      5-min Rain = 0
KLD1 171410Z 29008KT 04/M02 A3019 RMK A01 T00411016  RH  067%=      5-min Rain = 0
KLD1 171415Z 29007KT 04/M02 A3019 RMK A01 T00401016  RH  067%=      5-min Rain = 0
KLD1 171420Z 28007KT 04/M02 A3019 RMK A01 T00421015  RH  067%=      5-min Rain = 0
KLD1 171425Z 27007KT 05/M01 A302 RMK A01 T00461014  RH  066%=      5-min Rain = 0
KLD1 171430Z 26006KT 05/M01 A302 RMK A01 T00481014  RH  065%=      5-min Rain = 0
KLD1 171435Z 26006KT 05/M01 A302 RMK A01 T00471013  RH  066%=      5-min Rain = 0
KLD1 171440Z 27006KT 05/M01 A302 RMK A01 T00491012  RH  065%=      5-min Rain = 0
KLD1 171445Z 28007KT 05/M01 A3019 RMK A01 T00531011  RH  064%=      5-min Rain = 0
KLD1 171450Z 28008KT 06/M01 A302 RMK A01 T00571011  RH  062%=      5-min Rain = 0
KLD1 171455Z 29008KT 06/M01 A302 RMK A01 T00611011  RH  061%=      5-min Rain = 0
KLD1 171500Z 29007KT 06/M01 A302 RMK A01 T00641009  RH  060%=      5-min Rain = 0
KLD1 171505Z 28007KT 07/M01 A302 RMK A01 T00681009  RH  059%=      5-min Rain = 0
KLD1 171510Z 28007KT 07/M01 A302 RMK A01 T00731008  RH  057%=      5-min Rain = 0
KLD1 171515Z 28008KT 08/M01 A302 RMK A01 T00761007  RH  056%=      5-min Rain = 0
KLD1 171520Z 28008KT 08/M01 A302 RMK A01 T00791006  RH  055%=      5-min Rain = 0
KLD1 171525Z 28007KT 08/M01 A302 RMK A01 T00831005  RH  054%=      5-min Rain = 0
KLD1 171530Z 28008KT 09/M01 A302 RMK A01 T00861005  RH  053%=      5-min Rain = 0
KLD1 171535Z 29007KT 09/M00 A302 RMK A01 T00901004  RH  052%=      5-min Rain = 0
KLD1 171540Z 29010KT 09/M00 A302 RMK A01 T00941004  RH  051%=      5-min Rain = 0
KLD1 171545Z 30011KT 10/M00 A302 RMK A01 T00971004  RH  050%=      5-min Rain = 0
KLD1 171550Z 30011KT 10/M00 A302 RMK A01 T01001004  RH  049%=      5-min Rain = 0
KLD1 171555Z 31010KT 10/M00 A3021 RMK A01 T01021003  RH  048%=      5-min Rain = 0
KLD1 171600Z 30010KT 10/M00 A3021 RMK A01 T01031004  RH  048%=      5-min Rain = 0
KLD1 171605Z 32010KT 11/M00 A3021 RMK A01 T01051004  RH  047%=      5-min Rain = 0
KLD1 171610Z 31009KT 10/M01 A3021 RMK A01 T01031005  RH  047%=      5-min Rain = 0
KLD1 171615Z 31010KT 11/M01 A3021 RMK A01 T01061005  RH  047%=      5-min Rain = 0
KLD1 171620Z 31008KT 11/M01 A3021 RMK A01 T01051006  RH  047%=      5-min Rain = 0
KLD1 171625Z 31007KT 11/M00 A3022 RMK A01 T01091004  RH  046%=      5-min Rain = 0
KLD1 171630Z 30007KT 11/M00 A3022 RMK A01 T01111004  RH  045%=      5-min Rain = 0
KLD1 171635Z 30007KT 11/M00 A3022 RMK A01 T01131004  RH  045%=      5-min Rain = 0
KLD1 171640Z 30007KT 11/M01 A3022 RMK A01 T01141005  RH  044%=      5-min Rain = 0
KLD1 171645Z 30007KT 12/M00 A3022 RMK A01 T01181004  RH  044%=      5-min Rain = 0
KLD1 171650Z 31008KT 12/M01 A3022 RMK A01 T01191005  RH  043%=      5-min Rain = 0
KLD1 171655Z 31008KT 12/M01 A3022 RMK A01 T01181005  RH  043%=      5-min Rain = 0
KLD1 171700Z 30006KT 12/M00 A3022 RMK A01 T01211004  RH  042%=      5-min Rain = 0
KLD1 171705Z 30006KT 12/M00 A3022 RMK A01 T01241004  RH  042%=      5-min Rain = 0
KLD1 171710Z 30007KT 13/M00 A3022 RMK A01 T01261004  RH  041%=      5-min Rain = 0
KLD1 171715Z 31006KT 13/M00 A3022 RMK A01 T01311004  RH  040%=      5-min Rain = 0
KLD1 171720Z 31006KT 14/M01 A3022 RMK A01 T01351005  RH  039%=      5-min Rain = 0
KLD1 171725Z 30006KT 14/M01 A3022 RMK A01 T01361006  RH  038%=      5-min Rain = 0
KLD1 171730Z 32006KT 14/M01 A3022 RMK A01 T01381009  RH  037%=      5-min Rain = 0
KLD1 171735Z 32005KT 14/M01 A3022 RMK A01 T01381014  RH  036%=      5-min Rain = 0
KLD1 171740Z 31005KT 14/M01 A3022 RMK A01 T01401014  RH  035%=      5-min Rain = 0
KLD1 171745Z 30004KT 14/M01 A3022 RMK A01 T01431013  RH  034%=      5-min Rain = 0
KLD1 171750Z 33004KT 15/M01 A3021 RMK A01 T01461014  RH  034%=      5-min Rain = 0
KLD1 171755Z 33004KT 15/M02 A3021 RMK A01 T01481017  RH  032%=      5-min Rain = 0
KLD1 171800Z 34003KT 15/M02 A3021 RMK A01 T01491016  RH  032%=      5-min Rain = 0
KLD1 171805Z 30003KT 15/M02 A3021 RMK A01 T01501019  RH  031%=      5-min Rain = 0
KLD1 171810Z 34003KT 15/M02 A302 RMK A01 T01521022  RH  031%=      5-min Rain = 0
KLD1 171815Z 02002KT 16/M02 A302 RMK A01 T01551022  RH  030%=      5-min Rain = 0
KLD1 171820Z 01003KT 16/M02 A302 RMK A01 T01581024  RH  029%=      5-min Rain = 0
KLD1 171825Z 03002KT 16/M02 A302 RMK A01 T01591023  RH  029%=      5-min Rain = 0
KLD1 171830Z 03002KT 16/M02 A302 RMK A01 T01621022  RH  028%=      5-min Rain = 0
KLD1 171835Z 25003KT 17/M02 A3019 RMK A01 T01671024  RH  027%=      5-min Rain = 0
KLD1 171840Z 02002G7KT 17/M02 A3019 RMK A01 T01651024  RH  028%=      5-min Rain = 0
KLD1 171845Z 24002KT 17/M03 A3018 RMK A01 T01691027  RH  026%=      5-min Rain = 0
KLD1 171850Z 24003KT 17/M03 A3018 RMK A01 T01681032  RH  026%=      5-min Rain = 0
KLD1 171855Z 13003KT 17/M03 A3018 RMK A01 T01671032  RH  025%=      5-min Rain = 0
KLD1 171900Z 20003KT 17/M04 A3017 RMK A01 T01681036  RH  025%=      5-min Rain = 0
KLD1 171905Z 21002KT 17/M04 A3017 RMK A01 T01691040  RH  024%=      5-min Rain = 0
KLD1 171910Z 21002KT 17/M04 A3017 RMK A01 T01691037  RH  024%=      5-min Rain = 0
KLD1 171915Z 20002KT 17/M03 A3016 RMK A01 T01741032  RH  025%=      5-min Rain = 0
KLD1 171920Z 20003KT 18/M03 A3015 RMK A01 T01781031  RH  024%=      5-min Rain = 0
KLD1 171925Z 22004KT 17/M04 A3015 RMK A01 T01721036  RH  024%=      5-min Rain = 0
KLD1 171930Z 21004KT 17/M04 A3015 RMK A01 T01741036  RH  024%=      5-min Rain = 0
KLD1 171935Z 24005KT 17/M04 A3014 RMK A01 T01731036  RH  024%=      5-min Rain = 0
KLD1 171940Z 21003G9KT 18/M03 A3014 RMK A01 T01761033  RH  024%=      5-min Rain = 0
KLD1 171945Z 19006KT 18/M03 A3014 RMK A01 T01771031  RH  024%=      5-min Rain = 0
KLD1 171950Z 19003KT 18/M03 A3014 RMK A01 T01791031  RH  024%=      5-min Rain = 0
KLD1 171955Z 20006KT 18/M03 A3013 RMK A01 T01811030  RH  024%=      5-min Rain = 0
KLD1 172000Z 20005KT 18/M03 A3013 RMK A01 T01801028  RH  024%=      5-min Rain = 0
KLD1 172005Z 21004KT 18/M03 A3013 RMK A01 T01781029  RH  024%=      5-min Rain = 0
KLD1 172010Z 21004KT 18/M03 A3012 RMK A01 T01801028  RH  024%=      5-min Rain = 0
KLD1 172015Z 22005KT 18/M03 A3012 RMK A01 T01831027  RH  024%=      5-min Rain = 0
KLD1 172020Z 20003KT 18/M03 A3012 RMK A01 T01831029  RH  024%=      5-min Rain = 0
KLD1 172025Z 21003KT 19/M03 A3011 RMK A01 T01871027  RH  023%=      5-min Rain = 0
KLD1 172030Z 19003KT 19/M03 A3011 RMK A01 T01861028  RH  023%=      5-min Rain = 0
KLD1 172035Z 19006KT 19/M03 A3011 RMK A01 T01861027  RH  024%=      5-min Rain = 0
KLD1 172040Z 20005KT 19/M03 A3011 RMK A01 T01871026  RH  024%=      5-min Rain = 0
KLD1 172045Z 18004KT 19/M03 A3011 RMK A01 T01881028  RH  023%=      5-min Rain = 0
KLD1 172050Z 21004KT 19/M03 A301 RMK A01 T01881028  RH  023%=      5-min Rain = 0
KLD1 172055Z 21004G9KT 19/M03 A301 RMK A01 T01891029  RH  023%=      5-min Rain = 0
KLD1 172100Z 24003KT 19/M03 A301 RMK A01 T01901029  RH  023%=      5-min Rain = 0
KLD1 172105Z 21002KT 19/M03 A3009 RMK A01 T01911031  RH  022%=      5-min Rain = 0
KLD1 172110Z 18002KT 19/M03 A3009 RMK A01 T01901032  RH  022%=      5-min Rain = 0
KLD1 172115Z 19002KT 19/M03 A3009 RMK A01 T01921033  RH  022%=      5-min Rain = 0
KLD1 172120Z 19005KT 19/M04 A3009 RMK A01 T01911035  RH  021%=      5-min Rain = 0
KLD1 172125Z 21005KT 19/M04 A3009 RMK A01 T01911036  RH  021%=      5-min Rain = 0
KLD1 172130Z 18005KT 19/M04 A3009 RMK A01 T01941036  RH  021%=      5-min Rain = 0
KLD1 172135Z 20005KT 20/M04 A3009 RMK A01 T01971037  RH  020%=      5-min Rain = 0
KLD1 172140Z 19006KT 20/M04 A3009 RMK A01 T01971040  RH  020%=      5-min Rain = 0
KLD1 172145Z 19006KT 20/M04 A3009 RMK A01 T01971040  RH  020%=      5-min Rain = 0
KLD1 172150Z 20006KT 20/M04 A3009 RMK A01 T01991039  RH  020%=      5-min Rain = 0
KLD1 172155Z 19006KT 20/M04 A3009 RMK A01 T02001038  RH  020%=      5-min Rain = 0
KLD1 172200Z 19004KT 20/M04 A3009 RMK A01 T02021039  RH  019%=      5-min Rain = 0
KLD1 172205Z 18004KT 20/M04 A3008 RMK A01 T02041041  RH  019%=      5-min Rain = 0
KLD1 172210Z 19005KT 21/M04 A3008 RMK A01 T02051041  RH  019%=      5-min Rain = 0
KLD1 172215Z 14007KT 21/M03 A3008 RMK A01 T02051034  RH  020%=      5-min Rain = 0
KLD1 172220Z 14007KT 20/M03 A3009 RMK A01 T01971032  RH  021%=      5-min Rain = 0
KLD1 172225Z 15007KT 20/M03 A3008 RMK A01 T01981032  RH  021%=      5-min Rain = 0
KLD1 172230Z 16008KT 20/M03 A3008 RMK A01 T01971034  RH  021%=      5-min Rain = 0
KLD1 172235Z 16009KT 20/M03 A3008 RMK A01 T01971033  RH  021%=      5-min Rain = 0
KLD1 172240Z 17007KT 20/M03 A3008 RMK A01 T01971034  RH  021%=      5-min Rain = 0
KLD1 172245Z 17007KT 20/M03 A3008 RMK A01 T01961033  RH  021%=      5-min Rain = 0
KLD1 172250Z 16007KT 20/M03 A3008 RMK A01 T01951032  RH  021%=      5-min Rain = 0
KLD1 172255Z 16007KT 19/M03 A3008 RMK A01 T01941034  RH  021%=      5-min Rain = 0
KLD1 172300Z 16007KT 19/M04 A3008 RMK A01 T01941035  RH  021%=      5-min Rain = 0
KLD1 172305Z 16007KT 19/M04 A3008 RMK A01 T01941035  RH  021%=      5-min Rain = 0
KLD1 172310Z 17006KT 19/M04 A3008 RMK A01 T01931035  RH  021%=      5-min Rain = 0
KLD1 172315Z 18005KT 19/M04 A3007 RMK A01 T01931036  RH  021%=      5-min Rain = 0
KLD1 172320Z 21004KT 19/M04 A3007 RMK A01 T01931040  RH  020%=      5-min Rain = 0
KLD1 172325Z 22004KT 19/M04 A3007 RMK A01 T01921042  RH  020%=      5-min Rain = 0
KLD1 172330Z 20004KT 19/M04 A3007 RMK A01 T01901040  RH  021%=      5-min Rain = 0
KLD1 172335Z 20004KT 19/M04 A3006 RMK A01 T01871040  RH  021%=      5-min Rain = 0
KLD1 172340Z 19005KT 18/M04 A3006 RMK A01 T01811039  RH  022%=      5-min Rain = 0
KLD1 172345Z 18004KT 18/M04 A3006 RMK A01 T01761037  RH  023%=      5-min Rain = 0
KLD1 172350Z 18004KT 17/M04 A3006 RMK A01 T01741038  RH  023%=      5-min Rain = 0
KLD1 172355Z 18004KT 17/M04 A3006 RMK A01 T01701038  RH  024%=      5-min Rain = 0
KLD1 180000Z 18006KT 16/M04 A3006 RMK A01 T01631038  RH  025%=      5-min Rain = 0
KLD1 180005Z 17007KT 15/M04 A3006 RMK A01 T01501036  RH  028%=      5-min Rain = 0
KLD1 180010Z 16007KT 14/M03 A3006 RMK A01 T01371034  RH  030%=      5-min Rain = 0
KLD1 180015Z 15007KT 13/M03 A3006 RMK A01 T01291034  RH  032%=      5-min Rain = 0
KLD1 180020Z 14006KT 12/M03 A3007 RMK A01 T01221033  RH  034%=      5-min Rain = 0
KLD1 180025Z 15007KT 12/M03 A3007 RMK A01 T01201029  RH  036%=      5-min Rain = 0
KLD1 180030Z 16008KT 12/M02 A3007 RMK A01 T01171024  RH  037%=      5-min Rain = 0
KLD1 180035Z 17008KT 11/M02 A3007 RMK A01 T01131023  RH  039%=      5-min Rain = 0
KLD1 180040Z 17008KT 11/M03 A3007 RMK A01 T01101027  RH  039%=      5-min Rain = 0
KLD1 180045Z 17007KT 11/M03 A3007 RMK A01 T01081026  RH  039%=      5-min Rain = 0
KLD1 180050Z 17007KT 10/M03 A3007 RMK A01 T01041026  RH  040%=      5-min Rain = 0
KLD1 180055Z 17008KT 10/M03 A3007 RMK A01 T01001026  RH  041%=      5-min Rain = 0
KLD1 180100Z 17008KT 10/M03 A3007 RMK A01 T00961026  RH  043%=      5-min Rain = 0
KLD1 180105Z 17009KT 10/M03 A3007 RMK A01 T00951025  RH  043%=      5-min Rain = 0
KLD1 180110Z 18007KT 10/M02 A3007 RMK A01 T01001023  RH  042%=      5-min Rain = 0
KLD1 180115Z 18007KT 10/M02 A3007 RMK A01 T00991024  RH  042%=      5-min Rain = 0
KLD1 180120Z 17007KT 10/M02 A3007 RMK A01 T00961024  RH  043%=      5-min Rain = 0
KLD1 180125Z 17007KT 09/M03 A3007 RMK A01 T00921025  RH  044%=      5-min Rain = 0
KLD1 180130Z 17007KT 09/M03 A3007 RMK A01 T00891025  RH  045%=      5-min Rain = 0
KLD1 180135Z 16007KT 09/M03 A3007 RMK A01 T00851026  RH  046%=      5-min Rain = 0
KLD1 180140Z 16008KT 08/M03 A3007 RMK A01 T00791026  RH  048%=      5-min Rain = 0
KLD1 180145Z 17007KT 08/M03 A3007 RMK A01 T00751027  RH  049%=      5-min Rain = 0
KLD1 180150Z 17008KT 08/M03 A3007 RMK A01 T00751027  RH  049%=      5-min Rain = 0
KLD1 180155Z 18010KT 07/M03 A3007 RMK A01 T00741025  RH  050%=      5-min Rain = 0
KLD1 180200Z 19011KT 10/M02 A3007 RMK A01 T00961021  RH  044%=      5-min Rain = 0
KLD1 180205Z 19009KT 10/M02 A3007 RMK A01 T01031022  RH  042%=      5-min Rain = 0
KLD1 180210Z 19009KT 10/M02 A3007 RMK A01 T00951024  RH  044%=      5-min Rain = 0
KLD1 180215Z 19008KT 09/M03 A3007 RMK A01 T00911025  RH  045%=      5-min Rain = 0
KLD1 180220Z 19007KT 09/M03 A3006 RMK A01 T00881025  RH  045%=      5-min Rain = 0
KLD1 180225Z 18006KT 08/M03 A3006 RMK A01 T00821026  RH  047%=      5-min Rain = 0
KLD1 180230Z 18006KT 08/M03 A3006 RMK A01 T00751027  RH  049%=      5-min Rain = 0
KLD1 180235Z 19006KT 07/M03 A3006 RMK A01 T00691028  RH  050%=      5-min Rain = 0
KLD1 180240Z 20007KT 07/M03 A3006 RMK A01 T00671027  RH  051%=      5-min Rain = 0
KLD1 180245Z 20007KT 07/M03 A3006 RMK A01 T00691026  RH  051%=      5-min Rain = 0
KLD1 180250Z 20008KT 07/M03 A3006 RMK A01 T00731025  RH  050%=      5-min Rain = 0
KLD1 180255Z 20009KT 08/M02 A3006 RMK A01 T00771024  RH  049%=      5-min Rain = 0
KLD1 180300Z 21009KT 08/M02 A3006 RMK A01 T00791024  RH  048%=      5-min Rain = 0
KLD1 180305Z 21010KT 09/M02 A3006 RMK A01 T00871021  RH  047%=      5-min Rain = 0
KLD1 180310Z 21009KT 09/M02 A3006 RMK A01 T00911020  RH  046%=      5-min Rain = 0
KLD1 180315Z 21009KT 09/M02 A3005 RMK A01 T00861021  RH  047%=      5-min Rain = 0
KLD1 180320Z 21009KT 08/M02 A3005 RMK A01 T00811021  RH  049%=      5-min Rain = 0
KLD1 180325Z 21009KT 08/M02 A3005 RMK A01 T00801020  RH  050%=      5-min Rain = 0
KLD1 180330Z 21009KT 08/M02 A3005 RMK A01 T00811019  RH  050%=      5-min Rain = 0
KLD1 180335Z 21008KT 08/M02 A3005 RMK A01 T00791019  RH  051%=      5-min Rain = 0
KLD1 180340Z 21009KT 08/M02 A3005 RMK A01 T00781018  RH  051%=      5-min Rain = 0
KLD1 180345Z 21009KT 08/M02 A3004 RMK A01 T00781018  RH  051%=      5-min Rain = 0
KLD1 180350Z 21009KT 08/M02 A3004 RMK A01 T00781017  RH  051%=      5-min Rain = 0
KLD1 180355Z 21009KT 08/M02 A3004 RMK A01 T00781016  RH  052%=      5-min Rain = 0
KLD1 180400Z 21010KT 08/M02 A3004 RMK A01 T00801015  RH  051%=      5-min Rain = 0
KLD1 180405Z 21010KT 08/M01 A3004 RMK A01 T00831014  RH  051%=      5-min Rain = 0
KLD1 180410Z 20010KT 09/M01 A3004 RMK A01 T00871013  RH  050%=      5-min Rain = 0
KLD1 180415Z 20010KT 09/M01 A3003 RMK A01 T00881012  RH  050%=      5-min Rain = 0
KLD1 180420Z 19009KT 09/M01 A3003 RMK A01 T00871012  RH  050%=      5-min Rain = 0
KLD1 180425Z 20009KT 08/M01 A3003 RMK A01 T00841012  RH  051%=      5-min Rain = 0
KLD1 180430Z 20009KT 08/M01 A3003 RMK A01 T00821013  RH  052%=      5-min Rain = 0
KLD1 180435Z 20009KT 08/M01 A3003 RMK A01 T00811013  RH  052%=      5-min Rain = 0
KLD1 180440Z 20010KT 08/M01 A3003 RMK A01 T00801013  RH  052%=      5-min Rain = 0
KLD1 180445Z 20009KT 08/M01 A3003 RMK A01 T00781013  RH  053%=      5-min Rain = 0
KLD1 180450Z 20008KT 08/M01 A3003 RMK A01 T00771013  RH  053%=      5-min Rain = 0
KLD1 180455Z 20008KT 08/M01 A3003 RMK A01 T00751013  RH  054%=      5-min Rain = 0
KLD1 180500Z 20008KT 07/M01 A3003 RMK A01 T00741012  RH  055%=      5-min Rain = 0
KLD1 180505Z 20008KT 08/M01 A3003 RMK A01 T00761011  RH  055%=      5-min Rain = 0
KLD1 180510Z 20010KT 08/M01 A3003 RMK A01 T00761011  RH  055%=      5-min Rain = 0
KLD1 180515Z 20009KT 08/M01 A3003 RMK A01 T00771010  RH  055%=      5-min Rain = 0
KLD1 180520Z 20008KT 08/M01 A3003 RMK A01 T00751010  RH  055%=      5-min Rain = 0
KLD1 180525Z 20009KT 07/M01 A3003 RMK A01 T00741011  RH  055%=      5-min Rain = 0
KLD1 180530Z 20008KT 07/M01 A3002 RMK A01 T00721011  RH  056%=      5-min Rain = 0
KLD1 180535Z 21007KT 07/M01 A3002 RMK A01 T00691011  RH  057%=      5-min Rain = 0
KLD1 180540Z 21006KT 07/M01 A3002 RMK A01 T00661012  RH  058%=      5-min Rain = 0
KLD1 180545Z 21007KT 06/M01 A3002 RMK A01 T00631013  RH  059%=      5-min Rain = 0
KLD1 180550Z 20006KT 06/M01 A3001 RMK A01 T00611013  RH  060%=      5-min Rain = 0
KLD1 180555Z 21006KT 06/M01 A3002 RMK A01 T00591013  RH  060%=      5-min Rain = 0

Page generated in 0.0282 seconds.